sensor_id;sensor_type;location;lat;lon;timestamp;P1;durP1;ratioP1;P2;durP2;ratioP2
13122;SDS011;6627;50.920;12.050;2023-05-02T00:02:03;13.53;;;11.03;;
13122;SDS011;6627;50.920;12.050;2023-05-02T00:04:31;12.53;;;11.23;;
13122;SDS011;6627;50.920;12.050;2023-05-02T00:06:58;12.07;;;10.83;;
13122;SDS011;6627;50.920;12.050;2023-05-02T00:09:27;12.90;;;11.13;;
13122;SDS011;6627;50.920;12.050;2023-05-02T00:11:55;12.47;;;11.17;;
13122;SDS011;6627;50.920;12.050;2023-05-02T00:14:23;11.90;;;10.17;;
13122;SDS011;6627;50.920;12.050;2023-05-02T00:16:50;11.33;;;10.13;;
13122;SDS011;6627;50.920;12.050;2023-05-02T00:19:17;11.03;;;9.90;;
13122;SDS011;6627;50.920;12.050;2023-05-02T00:21:46;11.77;;;10.10;;
13122;SDS011;6627;50.920;12.050;2023-05-02T00:24:14;11.80;;;10.27;;
13122;SDS011;6627;50.920;12.050;2023-05-02T00:26:43;15.87;;;10.67;;
13122;SDS011;6627;50.920;12.050;2023-05-02T00:29:10;11.07;;;9.93;;
13122;SDS011;6627;50.920;12.050;2023-05-02T00:31:39;10.33;;;9.30;;
13122;SDS011;6627;50.920;12.050;2023-05-02T00:34:06;9.90;;;8.90;;
13122;SDS011;6627;50.920;12.050;2023-05-02T00:36:34;11.70;;;9.97;;
13122;SDS011;6627;50.920;12.050;2023-05-02T00:39:01;12.13;;;9.97;;
13122;SDS011;6627;50.920;12.050;2023-05-02T00:41:29;11.83;;;8.90;;
13122;SDS011;6627;50.920;12.050;2023-05-02T00:43:57;11.00;;;10.00;;
13122;SDS011;6627;50.920;12.050;2023-05-02T00:46:25;10.73;;;9.53;;
13122;SDS011;6627;50.920;12.050;2023-05-02T00:48:52;10.97;;;9.87;;
13122;SDS011;6627;50.920;12.050;2023-05-02T00:51:20;10.93;;;9.03;;
13122;SDS011;6627;50.920;12.050;2023-05-02T00:53:47;12.23;;;9.67;;
13122;SDS011;6627;50.920;12.050;2023-05-02T00:56:15;10.80;;;9.70;;
13122;SDS011;6627;50.920;12.050;2023-05-02T00:58:42;11.10;;;9.73;;
13122;SDS011;6627;50.920;12.050;2023-05-02T01:01:19;11.90;;;9.80;;
13122;SDS011;6627;50.920;12.050;2023-05-02T01:04:03;11.77;;;10.63;;
13122;SDS011;6627;50.920;12.050;2023-05-02T01:06:45;13.23;;;9.80;;
13122;SDS011;6627;50.920;12.050;2023-05-02T01:09:31;14.63;;;9.70;;
13122;SDS011;6627;50.920;12.050;2023-05-02T01:12:15;11.90;;;9.23;;
13122;SDS011;6627;50.920;12.050;2023-05-02T01:14:52;12.23;;;9.53;;
13122;SDS011;6627;50.920;12.050;2023-05-02T01:17:25;13.00;;;9.53;;
13122;SDS011;6627;50.920;12.050;2023-05-02T01:19:58;9.87;;;8.63;;
13122;SDS011;6627;50.920;12.050;2023-05-02T01:22:29;14.67;;;9.50;;
13122;SDS011;6627;50.920;12.050;2023-05-02T01:24:59;13.63;;;9.57;;
13122;SDS011;6627;50.920;12.050;2023-05-02T01:27:42;10.03;;;9.03;;
13122;SDS011;6627;50.920;12.050;2023-05-02T01:30:23;9.90;;;8.90;;
13122;SDS011;6627;50.920;12.050;2023-05-02T01:32:56;11.10;;;9.00;;
13122;SDS011;6627;50.920;12.050;2023-05-02T01:35:27;12.47;;;10.47;;
13122;SDS011;6627;50.920;12.050;2023-05-02T01:37:59;10.93;;;9.50;;
13122;SDS011;6627;50.920;12.050;2023-05-02T01:40:28;12.60;;;9.63;;
13122;SDS011;6627;50.920;12.050;2023-05-02T01:42:56;15.03;;;10.40;;
13122;SDS011;6627;50.920;12.050;2023-05-02T01:45:29;13.63;;;10.63;;
13122;SDS011;6627;50.920;12.050;2023-05-02T01:48:00;12.73;;;10.10;;
13122;SDS011;6627;50.920;12.050;2023-05-02T01:50:28;13.47;;;11.10;;
13122;SDS011;6627;50.920;12.050;2023-05-02T01:52:56;11.47;;;10.37;;
13122;SDS011;6627;50.920;12.050;2023-05-02T01:55:26;13.17;;;11.03;;
13122;SDS011;6627;50.920;12.050;2023-05-02T01:57:54;11.90;;;10.40;;
13122;SDS011;6627;50.920;12.050;2023-05-02T02:00:23;11.23;;;10.03;;
13122;SDS011;6627;50.920;12.050;2023-05-02T02:02:54;12.17;;;10.07;;
13122;SDS011;6627;50.920;12.050;2023-05-02T02:05:23;12.33;;;10.70;;
13122;SDS011;6627;50.920;12.050;2023-05-02T02:07:51;14.57;;;10.67;;
13122;SDS011;6627;50.920;12.050;2023-05-02T02:10:19;11.73;;;9.60;;
13122;SDS011;6627;50.920;12.050;2023-05-02T02:12:49;13.87;;;10.90;;
13122;SDS011;6627;50.920;12.050;2023-05-02T02:15:26;12.47;;;10.97;;
13122;SDS011;6627;50.920;12.050;2023-05-02T02:17:59;13.63;;;10.37;;
13122;SDS011;6627;50.920;12.050;2023-05-02T02:20:30;12.63;;;10.67;;
13122;SDS011;6627;50.920;12.050;2023-05-02T02:23:02;12.10;;;10.77;;
13122;SDS011;6627;50.920;12.050;2023-05-02T02:25:33;13.43;;;10.17;;
13122;SDS011;6627;50.920;12.050;2023-05-02T02:28:01;12.10;;;10.90;;
13122;SDS011;6627;50.920;12.050;2023-05-02T02:30:28;12.60;;;10.50;;
13122;SDS011;6627;50.920;12.050;2023-05-02T02:32:58;15.17;;;10.67;;
13122;SDS011;6627;50.920;12.050;2023-05-02T02:35:26;16.37;;;10.53;;
13122;SDS011;6627;50.920;12.050;2023-05-02T02:38:01;13.10;;;11.57;;
13122;SDS011;6627;50.920;12.050;2023-05-02T02:40:40;12.60;;;10.30;;
13122;SDS011;6627;50.920;12.050;2023-05-02T02:43:13;12.90;;;10.57;;
13122;SDS011;6627;50.920;12.050;2023-05-02T02:45:53;11.90;;;10.57;;
13122;SDS011;6627;50.920;12.050;2023-05-02T02:48:36;15.30;;;11.13;;
13122;SDS011;6627;50.920;12.050;2023-05-02T02:51:11;12.57;;;11.07;;
13122;SDS011;6627;50.920;12.050;2023-05-02T02:53:52;11.83;;;10.40;;
13122;SDS011;6627;50.920;12.050;2023-05-02T02:56:35;14.43;;;11.43;;
13122;SDS011;6627;50.920;12.050;2023-05-02T02:59:12;12.53;;;10.90;;
13122;SDS011;6627;50.920;12.050;2023-05-02T03:01:59;11.63;;;10.43;;
13122;SDS011;6627;50.920;12.050;2023-05-02T03:04:35;12.20;;;10.70;;
13122;SDS011;6627;50.920;12.050;2023-05-02T03:07:08;13.17;;;11.13;;
13122;SDS011;6627;50.920;12.050;2023-05-02T03:09:39;15.67;;;11.30;;
13122;SDS011;6627;50.920;12.050;2023-05-02T03:12:07;11.93;;;10.07;;
13122;SDS011;6627;50.920;12.050;2023-05-02T03:14:34;14.43;;;10.97;;
13122;SDS011;6627;50.920;12.050;2023-05-02T03:17:03;12.63;;;10.57;;
13122;SDS011;6627;50.920;12.050;2023-05-02T03:19:34;15.03;;;10.57;;
13122;SDS011;6627;50.920;12.050;2023-05-02T03:22:01;14.30;;;10.43;;
13122;SDS011;6627;50.920;12.050;2023-05-02T03:24:29;12.87;;;10.83;;
13122;SDS011;6627;50.920;12.050;2023-05-02T03:26:56;11.50;;;10.30;;
13122;SDS011;6627;50.920;12.050;2023-05-02T03:29:24;13.90;;;10.63;;
13122;SDS011;6627;50.920;12.050;2023-05-02T03:31:53;13.43;;;10.60;;
13122;SDS011;6627;50.920;12.050;2023-05-02T03:34:20;12.73;;;10.33;;
13122;SDS011;6627;50.920;12.050;2023-05-02T03:36:49;15.03;;;11.07;;
13122;SDS011;6627;50.920;12.050;2023-05-02T03:39:16;12.00;;;10.70;;
13122;SDS011;6627;50.920;12.050;2023-05-02T03:41:43;19.90;;;11.57;;
13122;SDS011;6627;50.920;12.050;2023-05-02T03:44:11;12.43;;;10.90;;
13122;SDS011;6627;50.920;12.050;2023-05-02T03:46:38;12.47;;;11.17;;
13122;SDS011;6627;50.920;12.050;2023-05-02T03:49:06;12.67;;;11.03;;
13122;SDS011;6627;50.920;12.050;2023-05-02T03:51:33;14.20;;;11.57;;
13122;SDS011;6627;50.920;12.050;2023-05-02T03:54:02;14.10;;;11.00;;
13122;SDS011;6627;50.920;12.050;2023-05-02T03:56:29;14.77;;;11.20;;
13122;SDS011;6627;50.920;12.050;2023-05-02T03:58:56;13.57;;;10.63;;
13122;SDS011;6627;50.920;12.050;2023-05-02T04:01:24;12.53;;;10.70;;
13122;SDS011;6627;50.920;12.050;2023-05-02T04:03:51;13.50;;;10.47;;
13122;SDS011;6627;50.920;12.050;2023-05-02T04:06:18;12.77;;;11.47;;
13122;SDS011;6627;50.920;12.050;2023-05-02T04:08:45;13.83;;;10.13;;
13122;SDS011;6627;50.920;12.050;2023-05-02T04:11:14;12.53;;;10.50;;
13122;SDS011;6627;50.920;12.050;2023-05-02T04:13:42;13.30;;;10.80;;
13122;SDS011;6627;50.920;12.050;2023-05-02T04:16:10;13.90;;;10.50;;
13122;SDS011;6627;50.920;12.050;2023-05-02T04:18:38;12.93;;;10.40;;
13122;SDS011;6627;50.920;12.050;2023-05-02T04:21:06;15.50;;;11.67;;
13122;SDS011;6627;50.920;12.050;2023-05-02T04:23:35;13.43;;;11.20;;
13122;SDS011;6627;50.920;12.050;2023-05-02T04:26:02;13.37;;;11.00;;
13122;SDS011;6627;50.920;12.050;2023-05-02T04:28:33;11.43;;;10.27;;
13122;SDS011;6627;50.920;12.050;2023-05-02T04:31:01;11.80;;;10.43;;
13122;SDS011;6627;50.920;12.050;2023-05-02T04:33:29;11.63;;;10.43;;
13122;SDS011;6627;50.920;12.050;2023-05-02T04:35:56;12.67;;;10.87;;
13122;SDS011;6627;50.920;12.050;2023-05-02T04:38:24;11.77;;;10.50;;
13122;SDS011;6627;50.920;12.050;2023-05-02T04:40:51;11.30;;;10.20;;
13122;SDS011;6627;50.920;12.050;2023-05-02T04:43:19;14.70;;;13.00;;
13122;SDS011;6627;50.920;12.050;2023-05-02T04:45:47;13.83;;;11.63;;
13122;SDS011;6627;50.920;12.050;2023-05-02T04:48:14;11.50;;;10.40;;
13122;SDS011;6627;50.920;12.050;2023-05-02T04:50:43;14.43;;;11.20;;
13122;SDS011;6627;50.920;12.050;2023-05-02T04:53:11;12.27;;;10.87;;
13122;SDS011;6627;50.920;12.050;2023-05-02T04:55:38;14.80;;;11.27;;
13122;SDS011;6627;50.920;12.050;2023-05-02T04:58:08;15.77;;;11.20;;
13122;SDS011;6627;50.920;12.050;2023-05-02T05:00:35;17.27;;;12.87;;
13122;SDS011;6627;50.920;12.050;2023-05-02T05:03:04;19.37;;;13.87;;
13122;SDS011;6627;50.920;12.050;2023-05-02T05:05:32;21.03;;;14.70;;
13122;SDS011;6627;50.920;12.050;2023-05-02T05:08:00;24.43;;;14.97;;
13122;SDS011;6627;50.920;12.050;2023-05-02T05:10:27;19.30;;;14.27;;
13122;SDS011;6627;50.920;12.050;2023-05-02T05:12:55;18.37;;;13.73;;
13122;SDS011;6627;50.920;12.050;2023-05-02T05:15:22;17.03;;;13.20;;
13122;SDS011;6627;50.920;12.050;2023-05-02T05:17:50;17.17;;;13.97;;
13122;SDS011;6627;50.920;12.050;2023-05-02T05:20:19;15.83;;;12.50;;
13122;SDS011;6627;50.920;12.050;2023-05-02T05:22:46;14.07;;;11.87;;
13122;SDS011;6627;50.920;12.050;2023-05-02T05:25:14;13.67;;;11.53;;
13122;SDS011;6627;50.920;12.050;2023-05-02T05:27:41;16.83;;;12.93;;
13122;SDS011;6627;50.920;12.050;2023-05-02T05:30:09;14.83;;;11.70;;
13122;SDS011;6627;50.920;12.050;2023-05-02T05:32:37;15.13;;;11.90;;
13122;SDS011;6627;50.920;12.050;2023-05-02T05:35:04;13.50;;;12.17;;
13122;SDS011;6627;50.920;12.050;2023-05-02T05:37:34;15.40;;;13.70;;
13122;SDS011;6627;50.920;12.050;2023-05-02T05:40:04;14.50;;;12.87;;
13122;SDS011;6627;50.920;12.050;2023-05-02T05:42:33;16.33;;;12.73;;
13122;SDS011;6627;50.920;12.050;2023-05-02T05:45:00;17.20;;;12.90;;
13122;SDS011;6627;50.920;12.050;2023-05-02T05:47:28;14.00;;;12.53;;
13122;SDS011;6627;50.920;12.050;2023-05-02T05:49:56;15.97;;;12.93;;
13122;SDS011;6627;50.920;12.050;2023-05-02T05:52:24;15.97;;;13.20;;
13122;SDS011;6627;50.920;12.050;2023-05-02T05:54:53;15.07;;;13.47;;
13122;SDS011;6627;50.920;12.050;2023-05-02T05:57:22;16.37;;;13.60;;
13122;SDS011;6627;50.920;12.050;2023-05-02T05:59:49;15.23;;;12.67;;
13122;SDS011;6627;50.920;12.050;2023-05-02T06:02:17;15.63;;;11.60;;
13122;SDS011;6627;50.920;12.050;2023-05-02T06:04:45;12.20;;;10.60;;
13122;SDS011;6627;50.920;12.050;2023-05-02T06:07:13;13.47;;;11.33;;
13122;SDS011;6627;50.920;12.050;2023-05-02T06:09:40;12.37;;;11.13;;
13122;SDS011;6627;50.920;12.050;2023-05-02T06:12:09;12.83;;;11.30;;
13122;SDS011;6627;50.920;12.050;2023-05-02T06:14:36;13.07;;;11.67;;
13122;SDS011;6627;50.920;12.050;2023-05-02T06:17:03;13.57;;;12.27;;
13122;SDS011;6627;50.920;12.050;2023-05-02T06:19:30;13.17;;;11.80;;
13122;SDS011;6627;50.920;12.050;2023-05-02T06:21:57;18.60;;;11.77;;
13122;SDS011;6627;50.920;12.050;2023-05-02T06:24:24;13.17;;;10.90;;
13122;SDS011;6627;50.920;12.050;2023-05-02T06:26:52;15.10;;;11.80;;
13122;SDS011;6627;50.920;12.050;2023-05-02T06:29:20;12.97;;;10.93;;
13122;SDS011;6627;50.920;12.050;2023-05-02T06:31:47;12.57;;;11.13;;
13122;SDS011;6627;50.920;12.050;2023-05-02T06:34:16;12.47;;;11.13;;
13122;SDS011;6627;50.920;12.050;2023-05-02T06:36:44;12.53;;;11.23;;
13122;SDS011;6627;50.920;12.050;2023-05-02T06:39:11;15.23;;;11.53;;
13122;SDS011;6627;50.920;12.050;2023-05-02T06:41:39;14.80;;;10.87;;
13122;SDS011;6627;50.920;12.050;2023-05-02T06:44:07;12.93;;;11.33;;
13122;SDS011;6627;50.920;12.050;2023-05-02T06:46:35;14.67;;;10.27;;
13122;SDS011;6627;50.920;12.050;2023-05-02T06:49:02;11.37;;;9.60;;
13122;SDS011;6627;50.920;12.050;2023-05-02T06:51:31;10.17;;;9.13;;
13122;SDS011;6627;50.920;12.050;2023-05-02T06:53:58;10.80;;;8.63;;
13122;SDS011;6627;50.920;12.050;2023-05-02T06:56:25;13.17;;;9.03;;
13122;SDS011;6627;50.920;12.050;2023-05-02T06:58:52;12.53;;;8.83;;
13122;SDS011;6627;50.920;12.050;2023-05-02T07:01:20;9.73;;;8.07;;
13122;SDS011;6627;50.920;12.050;2023-05-02T07:03:49;10.13;;;7.73;;
13122;SDS011;6627;50.920;12.050;2023-05-02T07:06:17;9.00;;;8.10;;
13122;SDS011;6627;50.920;12.050;2023-05-02T07:08:45;9.63;;;7.67;;
13122;SDS011;6627;50.920;12.050;2023-05-02T07:11:13;12.27;;;7.90;;
13122;SDS011;6627;50.920;12.050;2023-05-02T07:13:40;8.73;;;7.83;;
13122;SDS011;6627;50.920;12.050;2023-05-02T07:16:09;10.63;;;7.83;;
13122;SDS011;6627;50.920;12.050;2023-05-02T07:18:37;8.97;;;8.03;;
13122;SDS011;6627;50.920;12.050;2023-05-02T07:21:05;10.43;;;9.03;;
13122;SDS011;6627;50.920;12.050;2023-05-02T07:23:33;9.30;;;8.20;;
13122;SDS011;6627;50.920;12.050;2023-05-02T07:26:00;9.23;;;8.30;;
13122;SDS011;6627;50.920;12.050;2023-05-02T07:28:27;9.87;;;7.80;;
13122;SDS011;6627;50.920;12.050;2023-05-02T07:30:55;9.57;;;8.40;;
13122;SDS011;6627;50.920;12.050;2023-05-02T07:33:23;15.10;;;8.10;;
13122;SDS011;6627;50.920;12.050;2023-05-02T07:35:52;10.30;;;8.50;;
13122;SDS011;6627;50.920;12.050;2023-05-02T07:38:23;9.83;;;8.20;;
13122;SDS011;6627;50.920;12.050;2023-05-02T07:40:50;9.70;;;8.10;;
13122;SDS011;6627;50.920;12.050;2023-05-02T07:43:17;10.30;;;9.20;;
13122;SDS011;6627;50.920;12.050;2023-05-02T07:45:44;9.20;;;8.30;;
13122;SDS011;6627;50.920;12.050;2023-05-02T07:48:11;12.23;;;8.97;;
13122;SDS011;6627;50.920;12.050;2023-05-02T07:50:40;11.00;;;9.03;;
13122;SDS011;6627;50.920;12.050;2023-05-02T07:53:08;9.33;;;8.43;;
13122;SDS011;6627;50.920;12.050;2023-05-02T07:55:37;9.77;;;8.77;;
13122;SDS011;6627;50.920;12.050;2023-05-02T07:58:05;11.50;;;9.03;;
13122;SDS011;6627;50.920;12.050;2023-05-02T08:00:32;10.13;;;8.80;;
13122;SDS011;6627;50.920;12.050;2023-05-02T08:03:01;11.10;;;9.13;;
13122;SDS011;6627;50.920;12.050;2023-05-02T08:05:28;9.73;;;8.73;;
13122;SDS011;6627;50.920;12.050;2023-05-02T08:07:56;8.90;;;8.00;;
13122;SDS011;6627;50.920;12.050;2023-05-02T08:10:24;13.93;;;8.13;;
13122;SDS011;6627;50.920;12.050;2023-05-02T08:12:53;10.90;;;8.50;;
13122;SDS011;6627;50.920;12.050;2023-05-02T08:15:21;12.80;;;8.03;;
13122;SDS011;6627;50.920;12.050;2023-05-02T08:17:49;11.30;;;8.77;;
13122;SDS011;6627;50.920;12.050;2023-05-02T08:20:17;11.13;;;8.93;;
13122;SDS011;6627;50.920;12.050;2023-05-02T08:22:44;9.57;;;8.50;;
13122;SDS011;6627;50.920;12.050;2023-05-02T08:25:11;9.77;;;8.43;;
13122;SDS011;6627;50.920;12.050;2023-05-02T08:27:38;9.13;;;8.20;;
13122;SDS011;6627;50.920;12.050;2023-05-02T08:30:07;8.43;;;7.67;;
13122;SDS011;6627;50.920;12.050;2023-05-02T08:32:35;9.00;;;7.97;;
13122;SDS011;6627;50.920;12.050;2023-05-02T08:35:03;8.50;;;7.70;;
13122;SDS011;6627;50.920;12.050;2023-05-02T08:37:31;9.23;;;7.23;;
13122;SDS011;6627;50.920;12.050;2023-05-02T08:39:58;8.73;;;7.27;;
13122;SDS011;6627;50.920;12.050;2023-05-02T08:42:26;8.97;;;7.20;;
13122;SDS011;6627;50.920;12.050;2023-05-02T08:44:59;8.77;;;7.97;;
13122;SDS011;6627;50.920;12.050;2023-05-02T08:47:30;9.43;;;8.43;;
13122;SDS011;6627;50.920;12.050;2023-05-02T08:49:58;10.07;;;7.73;;
13122;SDS011;6627;50.920;12.050;2023-05-02T08:52:25;8.43;;;6.93;;
13122;SDS011;6627;50.920;12.050;2023-05-02T08:54:55;10.33;;;7.60;;
13122;SDS011;6627;50.920;12.050;2023-05-02T08:57:27;9.20;;;7.63;;
13122;SDS011;6627;50.920;12.050;2023-05-02T08:59:56;8.37;;;7.57;;
13122;SDS011;6627;50.920;12.050;2023-05-02T09:02:27;8.23;;;7.07;;
13122;SDS011;6627;50.920;12.050;2023-05-02T09:05:18;9.60;;;7.90;;
13122;SDS011;6627;50.920;12.050;2023-05-02T09:07:49;9.13;;;7.70;;
13122;SDS011;6627;50.920;12.050;2023-05-02T09:10:18;8.03;;;7.17;;
13122;SDS011;6627;50.920;12.050;2023-05-02T09:12:47;9.30;;;7.67;;
13122;SDS011;6627;50.920;12.050;2023-05-02T09:15:15;9.30;;;6.87;;
13122;SDS011;6627;50.920;12.050;2023-05-02T09:17:45;9.63;;;6.23;;
13122;SDS011;6627;50.920;12.050;2023-05-02T09:20:13;9.00;;;6.10;;
13122;SDS011;6627;50.920;12.050;2023-05-02T09:22:46;6.53;;;5.83;;
13122;SDS011;6627;50.920;12.050;2023-05-02T09:25:15;7.57;;;6.20;;
13122;SDS011;6627;50.920;12.050;2023-05-02T09:27:48;7.03;;;6.03;;
13122;SDS011;6627;50.920;12.050;2023-05-02T09:30:18;15.23;;;6.17;;
13122;SDS011;6627;50.920;12.050;2023-05-02T09:32:49;9.13;;;5.67;;
13122;SDS011;6627;50.920;12.050;2023-05-02T09:35:19;7.10;;;6.20;;
13122;SDS011;6627;50.920;12.050;2023-05-02T09:37:50;8.10;;;5.93;;
13122;SDS011;6627;50.920;12.050;2023-05-02T09:40:18;7.70;;;6.63;;
13122;SDS011;6627;50.920;12.050;2023-05-02T09:42:46;6.83;;;6.13;;
13122;SDS011;6627;50.920;12.050;2023-05-02T09:45:20;7.90;;;5.63;;
13122;SDS011;6627;50.920;12.050;2023-05-02T09:47:51;8.63;;;5.90;;
13122;SDS011;6627;50.920;12.050;2023-05-02T09:50:30;7.47;;;5.90;;
13122;SDS011;6627;50.920;12.050;2023-05-02T09:53:00;7.07;;;6.10;;
13122;SDS011;6627;50.920;12.050;2023-05-02T09:55:32;7.63;;;6.13;;
13122;SDS011;6627;50.920;12.050;2023-05-02T09:57:59;9.57;;;5.83;;
13122;SDS011;6627;50.920;12.050;2023-05-02T10:00:37;8.43;;;6.10;;
13122;SDS011;6627;50.920;12.050;2023-05-02T10:03:07;8.07;;;6.50;;
13122;SDS011;6627;50.920;12.050;2023-05-02T10:05:36;6.40;;;5.80;;
13122;SDS011;6627;50.920;12.050;2023-05-02T10:08:05;7.43;;;6.00;;
13122;SDS011;6627;50.920;12.050;2023-05-02T10:10:35;6.10;;;5.50;;
13122;SDS011;6627;50.920;12.050;2023-05-02T10:13:04;6.17;;;4.60;;
13122;SDS011;6627;50.920;12.050;2023-05-02T10:15:35;5.37;;;4.70;;
13122;SDS011;6627;50.920;12.050;2023-05-02T10:18:12;6.87;;;5.30;;
13122;SDS011;6627;50.920;12.050;2023-05-02T10:20:43;8.83;;;6.20;;
13122;SDS011;6627;50.920;12.050;2023-05-02T10:23:21;6.87;;;5.13;;
13122;SDS011;6627;50.920;12.050;2023-05-02T10:25:53;6.83;;;5.77;;
13122;SDS011;6627;50.920;12.050;2023-05-02T10:28:21;11.20;;;6.20;;
13122;SDS011;6627;50.920;12.050;2023-05-02T10:30:49;10.50;;;6.20;;
13122;SDS011;6627;50.920;12.050;2023-05-02T10:33:21;7.60;;;5.93;;
13122;SDS011;6627;50.920;12.050;2023-05-02T10:35:48;7.63;;;5.87;;
13122;SDS011;6627;50.920;12.050;2023-05-02T10:38:16;6.73;;;6.10;;
13122;SDS011;6627;50.920;12.050;2023-05-02T10:40:47;7.07;;;6.37;;
13122;SDS011;6627;50.920;12.050;2023-05-02T10:43:21;8.83;;;6.17;;
13122;SDS011;6627;50.920;12.050;2023-05-02T10:45:53;8.17;;;6.10;;
13122;SDS011;6627;50.920;12.050;2023-05-02T10:48:22;7.37;;;6.67;;
13122;SDS011;6627;50.920;12.050;2023-05-02T10:50:51;8.10;;;6.10;;
13122;SDS011;6627;50.920;12.050;2023-05-02T10:53:25;10.60;;;6.47;;
13122;SDS011;6627;50.920;12.050;2023-05-02T10:56:12;11.03;;;6.60;;
13122;SDS011;6627;50.920;12.050;2023-05-02T10:58:46;8.07;;;6.23;;
13122;SDS011;6627;50.920;12.050;2023-05-02T11:01:33;8.33;;;6.50;;
13122;SDS011;6627;50.920;12.050;2023-05-02T11:04:04;7.13;;;6.37;;
13122;SDS011;6627;50.920;12.050;2023-05-02T11:06:34;7.53;;;6.07;;
13122;SDS011;6627;50.920;12.050;2023-05-02T11:09:30;7.67;;;6.47;;
13122;SDS011;6627;50.920;12.050;2023-05-02T11:12:01;8.67;;;6.50;;
13122;SDS011;6627;50.920;12.050;2023-05-02T11:14:42;8.07;;;6.50;;
13122;SDS011;6627;50.920;12.050;2023-05-02T11:17:15;7.87;;;6.77;;
13122;SDS011;6627;50.920;12.050;2023-05-02T11:22:47;8.33;;;6.50;;
13122;SDS011;6627;50.920;12.050;2023-05-02T11:25:32;7.97;;;6.50;;
13122;SDS011;6627;50.920;12.050;2023-05-02T11:28:03;8.10;;;6.80;;
13122;SDS011;6627;50.920;12.050;2023-05-02T11:30:36;7.07;;;6.37;;
13122;SDS011;6627;50.920;12.050;2023-05-02T11:33:10;7.77;;;6.30;;
13122;SDS011;6627;50.920;12.050;2023-05-02T11:35:46;9.17;;;6.30;;
13122;SDS011;6627;50.920;12.050;2023-05-02T11:38:15;7.73;;;6.40;;
13122;SDS011;6627;50.920;12.050;2023-05-02T11:43:31;7.53;;;6.73;;
13122;SDS011;6627;50.920;12.050;2023-05-02T11:45:59;7.33;;;6.43;;
13122;SDS011;6627;50.920;12.050;2023-05-02T11:48:28;6.97;;;6.27;;
13122;SDS011;6627;50.920;12.050;2023-05-02T11:50:58;8.33;;;7.00;;
13122;SDS011;6627;50.920;12.050;2023-05-02T11:53:29;10.13;;;6.90;;
13122;SDS011;6627;50.920;12.050;2023-05-02T11:55:57;9.23;;;6.53;;
13122;SDS011;6627;50.920;12.050;2023-05-02T11:58:46;10.20;;;6.40;;
13122;SDS011;6627;50.920;12.050;2023-05-02T12:01:24;9.07;;;6.50;;
13122;SDS011;6627;50.920;12.050;2023-05-02T12:04:00;9.80;;;7.33;;
13122;SDS011;6627;50.920;12.050;2023-05-02T12:06:30;11.47;;;8.13;;
13122;SDS011;6627;50.920;12.050;2023-05-02T12:09:07;8.70;;;7.90;;
13122;SDS011;6627;50.920;12.050;2023-05-02T12:11:36;10.40;;;7.93;;
13122;SDS011;6627;50.920;12.050;2023-05-02T12:14:04;11.00;;;8.17;;
13122;SDS011;6627;50.920;12.050;2023-05-02T12:16:31;8.73;;;7.90;;
13122;SDS011;6627;50.920;12.050;2023-05-02T12:18:59;9.97;;;8.50;;
13122;SDS011;6627;50.920;12.050;2023-05-02T12:21:27;8.00;;;7.30;;
13122;SDS011;6627;50.920;12.050;2023-05-02T12:23:58;8.27;;;7.47;;
13122;SDS011;6627;50.920;12.050;2023-05-02T12:26:27;7.63;;;6.90;;
13122;SDS011;6627;50.920;12.050;2023-05-02T12:28:57;9.30;;;6.67;;
13122;SDS011;6627;50.920;12.050;2023-05-02T12:31:25;8.57;;;6.30;;
13122;SDS011;6627;50.920;12.050;2023-05-02T12:33:55;6.37;;;4.70;;
13122;SDS011;6627;50.920;12.050;2023-05-02T12:36:24;4.20;;;2.70;;
13122;SDS011;6627;50.920;12.050;2023-05-02T12:38:54;2.63;;;2.43;;
13122;SDS011;6627;50.920;12.050;2023-05-02T12:41:30;5.47;;;2.77;;
13122;SDS011;6627;50.920;12.050;2023-05-02T12:43:59;4.93;;;2.90;;
13122;SDS011;6627;50.920;12.050;2023-05-02T12:46:27;3.60;;;2.20;;
13122;SDS011;6627;50.920;12.050;2023-05-02T12:49:02;2.80;;;2.50;;
13122;SDS011;6627;50.920;12.050;2023-05-02T12:51:31;2.70;;;2.03;;
13122;SDS011;6627;50.920;12.050;2023-05-02T12:53:59;2.60;;;2.27;;
13122;SDS011;6627;50.920;12.050;2023-05-02T12:56:27;2.90;;;2.40;;
13122;SDS011;6627;50.920;12.050;2023-05-02T12:58:58;3.03;;;2.67;;
13122;SDS011;6627;50.920;12.050;2023-05-02T13:01:31;4.23;;;2.30;;
13122;SDS011;6627;50.920;12.050;2023-05-02T13:04:00;2.87;;;2.20;;
13122;SDS011;6627;50.920;12.050;2023-05-02T13:06:28;2.50;;;2.30;;
13122;SDS011;6627;50.920;12.050;2023-05-02T13:08:56;2.57;;;2.37;;
13122;SDS011;6627;50.920;12.050;2023-05-02T13:11:24;3.43;;;2.40;;
13122;SDS011;6627;50.920;12.050;2023-05-02T13:13:53;3.00;;;2.47;;
13122;SDS011;6627;50.920;12.050;2023-05-02T13:16:22;2.17;;;1.97;;
13122;SDS011;6627;50.920;12.050;2023-05-02T13:18:50;2.23;;;2.03;;
13122;SDS011;6627;50.920;12.050;2023-05-02T13:21:18;2.53;;;2.00;;
13122;SDS011;6627;50.920;12.050;2023-05-02T13:23:46;2.37;;;1.77;;
13122;SDS011;6627;50.920;12.050;2023-05-02T13:26:15;1.70;;;1.60;;
13122;SDS011;6627;50.920;12.050;2023-05-02T13:28:42;2.97;;;1.70;;
13122;SDS011;6627;50.920;12.050;2023-05-02T13:31:09;1.77;;;1.67;;
13122;SDS011;6627;50.920;12.050;2023-05-02T13:33:37;1.90;;;1.70;;
13122;SDS011;6627;50.920;12.050;2023-05-02T13:36:05;2.00;;;1.80;;
13122;SDS011;6627;50.920;12.050;2023-05-02T13:38:33;2.10;;;1.90;;
13122;SDS011;6627;50.920;12.050;2023-05-02T13:41:00;2.00;;;1.60;;
13122;SDS011;6627;50.920;12.050;2023-05-02T13:43:27;2.10;;;1.60;;
13122;SDS011;6627;50.920;12.050;2023-05-02T13:45:54;1.50;;;1.30;;
13122;SDS011;6627;50.920;12.050;2023-05-02T13:48:22;1.83;;;1.67;;
13122;SDS011;6627;50.920;12.050;2023-05-02T13:50:51;1.80;;;1.70;;
13122;SDS011;6627;50.920;12.050;2023-05-02T13:53:20;2.10;;;1.90;;
13122;SDS011;6627;50.920;12.050;2023-05-02T13:55:47;2.00;;;1.80;;
13122;SDS011;6627;50.920;12.050;2023-05-02T13:58:14;2.40;;;2.00;;
13122;SDS011;6627;50.920;12.050;2023-05-02T14:00:41;2.53;;;2.33;;
13122;SDS011;6627;50.920;12.050;2023-05-02T14:03:09;4.07;;;3.03;;
13122;SDS011;6627;50.920;12.050;2023-05-02T14:05:37;3.17;;;2.83;;
13122;SDS011;6627;50.920;12.050;2023-05-02T14:08:10;3.43;;;3.07;;
13122;SDS011;6627;50.920;12.050;2023-05-02T14:10:43;3.53;;;3.20;;
13122;SDS011;6627;50.920;12.050;2023-05-02T14:13:10;4.40;;;4.00;;
13122;SDS011;6627;50.920;12.050;2023-05-02T14:15:38;3.77;;;3.47;;
13122;SDS011;6627;50.920;12.050;2023-05-02T14:18:05;4.63;;;3.50;;
13122;SDS011;6627;50.920;12.050;2023-05-02T14:20:33;4.80;;;4.10;;
13122;SDS011;6627;50.920;12.050;2023-05-02T14:23:00;4.47;;;4.07;;
13122;SDS011;6627;50.920;12.050;2023-05-02T14:25:29;4.63;;;4.23;;
13122;SDS011;6627;50.920;12.050;2023-05-02T14:27:57;6.13;;;5.40;;
13122;SDS011;6627;50.920;12.050;2023-05-02T14:30:25;5.93;;;5.33;;
13122;SDS011;6627;50.920;12.050;2023-05-02T14:32:53;8.20;;;5.43;;
13122;SDS011;6627;50.920;12.050;2023-05-02T14:35:21;6.50;;;5.43;;
13122;SDS011;6627;50.920;12.050;2023-05-02T14:37:49;7.57;;;5.60;;
13122;SDS011;6627;50.920;12.050;2023-05-02T14:40:16;7.80;;;6.50;;
13122;SDS011;6627;50.920;12.050;2023-05-02T14:42:46;8.70;;;7.73;;
13122;SDS011;6627;50.920;12.050;2023-05-02T14:45:13;11.40;;;7.50;;
13122;SDS011;6627;50.920;12.050;2023-05-02T14:47:41;11.90;;;7.67;;
13122;SDS011;6627;50.920;12.050;2023-05-02T14:50:09;9.63;;;8.40;;
13122;SDS011;6627;50.920;12.050;2023-05-02T14:52:36;10.13;;;7.83;;
13122;SDS011;6627;50.920;12.050;2023-05-02T14:55:04;12.13;;;8.20;;
13122;SDS011;6627;50.920;12.050;2023-05-02T14:57:32;13.20;;;9.47;;